Time;durP1;ratioP1;P1;durP2;ratioP2;P2;SDS_P1;SDS_P2;PMS_P1;PMS_P2;Temp;Humidity;BMP_temperature;BMP_pressure;BME280_temperature;BME280_humidity;BME280_pressure;Samples;Min_cycle;Max_cycle;Signal;HPM_P1;HPM_P2
2023/10/22 00:01:23;;;;;;;8.43;2.45;;;26.90;92.50;;;;;;5031271;28;20202;-79
2023/10/22 00:03:54;;;;;;;8.40;2.30;;;26.80;92.40;;;;;;5032237;28;20291;-78
2023/10/22 00:06:25;;;;;;;6.93;2.50;;;26.90;92.20;;;;;;5032106;28;20256;-79
2023/10/22 00:08:56;;;;;;;8.45;2.22;;;27.10;90.80;;;;;;5015845;28;20228;-78
2023/10/22 00:11:26;;;;;;;9.18;2.42;;;26.90;90.00;;;;;;5012589;28;20193;-78
2023/10/22 00:13:59;;;;;;;8.60;2.28;;;27.00;89.80;;;;;;5021795;28;20204;-79
2023/10/22 00:16:30;;;;;;;4.60;1.95;;;27.00;87.80;;;;;;5030854;28;20204;-78
2023/10/22 00:19:01;;;;;;;5.60;2.20;;;27.10;86.90;;;;;;5032492;28;20284;-78
2023/10/22 00:21:32;;;;;;;5.10;1.88;;;27.20;88.60;;;;;;5030646;28;20202;-78
2023/10/22 00:24:02;;;;;;;10.60;2.22;;;27.40;88.90;;;;;;5032089;28;20192;-78
2023/10/22 00:26:33;;;;;;;6.35;2.10;;;27.50;84.20;;;;;;5032122;28;20268;-79
2023/10/22 00:29:06;;;;;;;8.90;2.25;;;27.60;83.10;;;;;;5033723;28;20243;-78
2023/10/22 00:31:37;;;;;;;5.68;1.98;;;27.70;84.50;;;;;;5033679;28;20663;-79
2023/10/22 00:34:08;;;;;;;5.13;2.13;;;27.80;81.90;;;;;;5039875;28;20236;-78
2023/10/22 00:36:41;;;;;;;8.13;2.30;;;27.80;82.30;;;;;;5052540;28;20207;-78
2023/10/22 00:39:11;;;;;;;7.10;2.50;;;28.00;79.80;;;;;;5037763;28;20281;-79
2023/10/22 00:41:42;;;;;;;7.47;2.65;;;27.90;76.70;;;;;;5032438;28;20277;-78
2023/10/22 00:44:15;;;;;;;6.25;2.00;;;27.90;76.10;;;;;;5038272;28;20204;-77
2023/10/22 00:46:48;;;;;;;7.18;2.30;;;27.90;76.50;;;;;;5027984;28;20227;-79
2023/10/22 00:49:19;;;;;;;9.65;2.70;;;28.00;81.80;;;;;;5041051;28;20217;-78
2023/10/22 00:51:50;;;;;;;10.35;2.50;;;27.90;86.00;;;;;;5050782;28;20227;-78
2023/10/22 00:54:22;;;;;;;8.98;2.70;;;28.00;88.10;;;;;;5034876;28;20206;-77
2023/10/22 00:56:54;;;;;;;10.23;2.70;;;28.00;89.60;;;;;;5015392;28;20198;-77
2023/10/22 00:59:28;;;;;;;14.27;2.90;;;28.00;89.40;;;;;;5011669;28;20242;-77
2023/10/22 01:01:59;;;;;;;12.73;2.40;;;28.10;89.20;;;;;;5030258;28;20285;-78
2023/10/22 01:04:30;;;;;;;9.80;2.47;;;28.10;87.10;;;;;;5031776;28;20205;-78
2023/10/22 01:07:01;;;;;;;11.27;2.50;;;27.90;89.40;;;;;;5030241;28;20702;-78
2023/10/22 01:09:32;;;;;;;10.20;2.65;;;27.80;90.70;;;;;;5025017;28;20201;-78
2023/10/22 01:12:04;;;;;;;9.82;2.15;;;27.80;90.30;;;;;;5032047;28;20207;-78
2023/10/22 01:14:36;;;;;;;7.57;3.78;;;28.00;88.70;;;;;;5031404;28;20201;-78
2023/10/22 01:17:07;;;;;;;8.55;3.05;;;28.00;87.20;;;;;;5028933;28;20205;-79
2023/10/22 01:19:38;;;;;;;7.88;4.00;;;28.20;88.80;;;;;;5030882;28;20207;-78
2023/10/22 01:22:09;;;;;;;13.95;2.60;;;28.40;87.30;;;;;;5031001;28;20201;-78
2023/10/22 01:24:42;;;;;;;5.95;2.13;;;28.40;88.60;;;;;;5030358;28;20304;-79
2023/10/22 01:27:13;;;;;;;10.60;2.58;;;28.60;87.90;;;;;;5030426;28;20243;-78
2023/10/22 01:29:43;;;;;;;7.32;2.63;;;28.70;86.30;;;;;;5040964;28;20199;-78
2023/10/22 01:32:18;;;;;;;8.77;2.63;;;28.70;83.70;;;;;;5035870;28;20596;-78
2023/10/22 01:34:53;;;;;;;7.53;2.47;;;28.80;83.30;;;;;;5022917;28;20229;-79
2023/10/22 01:37:24;;;;;;;6.97;2.25;;;28.70;82.10;;;;;;5025049;28;20747;-78
2023/10/22 01:39:59;;;;;;;7.65;2.28;;;28.70;81.80;;;;;;5024317;28;20593;-78
2023/10/22 01:42:31;;;;;;;9.02;2.45;;;28.80;82.50;;;;;;5006695;28;20196;-77
2023/10/22 01:45:02;;;;;;;7.18;2.25;;;28.90;82.10;;;;;;5040777;28;20284;-79
2023/10/22 01:47:35;;;;;;;7.25;2.15;;;29.00;80.10;;;;;;5036517;28;20194;-78
2023/10/22 01:50:19;;;;;;;8.60;2.72;;;28.80;79.70;;;;;;5041101;28;20216;-79
2023/10/22 01:52:52;;;;;;;10.13;2.20;;;28.80;78.80;;;;;;5026429;28;20282;-77
2023/10/22 01:55:24;;;;;;;6.82;2.60;;;28.80;78.40;;;;;;5021871;28;20208;-76
2023/10/22 01:57:56;;;;;;;7.07;2.83;;;28.70;77.10;;;;;;5038454;28;20203;-81
2023/10/22 02:00:30;;;;;;;9.50;2.45;;;28.80;76.60;;;;;;5038786;28;20201;-78
2023/10/22 02:03:04;;;;;;;5.20;1.50;;;28.70;77.00;;;;;;5039295;28;20224;-77
2023/10/22 02:05:36;;;;;;;5.05;1.98;;;28.70;77.50;;;;;;5023209;28;20307;-77
2023/10/22 02:08:12;;;;;;;7.53;2.17;;;28.70;77.60;;;;;;5040655;28;20213;-77
2023/10/22 02:10:45;;;;;;;6.22;1.80;;;28.70;78.20;;;;;;5040373;28;20188;-78
2023/10/22 02:13:19;;;;;;;6.57;1.90;;;28.80;79.40;;;;;;5040266;28;20280;-78
2023/10/22 02:16:00;;;;;;;6.55;2.10;;;28.80;79.40;;;;;;5038744;28;20193;-78
2023/10/22 02:18:31;;;;;;;5.38;2.10;;;28.90;80.50;;;;;;5020635;28;20633;-78
2023/10/22 02:21:03;;;;;;;8.80;2.20;;;29.00;80.90;;;;;;5018745;28;20266;-77
2023/10/22 02:23:34;;;;;;;8.93;2.30;;;29.00;81.60;;;;;;5019013;28;20191;-78
2023/10/22 02:26:15;;;;;;;9.15;2.33;;;28.90;80.70;;;;;;5019537;28;20221;-80
2023/10/22 02:28:48;;;;;;;7.10;2.40;;;28.90;82.10;;;;;;5021688;28;20220;-78
2023/10/22 02:31:18;;;;;;;6.45;2.08;;;29.00;82.10;;;;;;5046665;22;20229;-78
2023/10/22 02:33:49;;;;;;;4.18;1.50;;;29.00;81.40;;;;;;5026146;28;20201;-77
2023/10/22 02:36:20;;;;;;;5.15;1.80;;;29.10;79.70;;;;;;5038931;28;20244;-78
2023/10/22 02:38:51;;;;;;;10.23;2.28;;;29.10;79.30;;;;;;5040639;28;20186;-78
2023/10/22 02:41:25;;;;;;;6.35;1.75;;;29.10;79.70;;;;;;5042990;28;20213;-78
2023/10/22 02:43:55;;;;;;;6.45;1.73;;;29.00;78.00;;;;;;5034403;28;20203;-77
2023/10/22 02:46:26;;;;;;;7.22;1.95;;;29.10;79.50;;;;;;5023341;28;20608;-78
2023/10/22 02:48:58;;;;;;;6.75;1.73;;;29.10;79.50;;;;;;5017096;28;20208;-78
2023/10/22 02:51:28;;;;;;;11.15;2.08;;;29.20;81.70;;;;;;5027844;28;20658;-77
2023/10/22 02:53:59;;;;;;;7.35;1.90;;;29.40;82.70;;;;;;5020253;28;20698;-77
2023/10/22 02:56:32;;;;;;;9.23;2.08;;;29.40;83.90;;;;;;5024367;28;20232;-77
2023/10/22 02:59:03;;;;;;;8.90;1.98;;;29.50;83.40;;;;;;5033887;28;20273;-77
2023/10/22 03:01:33;;;;;;;7.80;2.30;;;29.50;83.90;;;;;;5038270;28;20197;-77
2023/10/22 03:04:04;;;;;;;7.45;1.73;;;29.50;83.30;;;;;;5033476;28;20197;-76
2023/10/22 03:06:35;;;;;;;7.82;2.00;;;29.50;82.30;;;;;;5033204;28;20225;-78
2023/10/22 03:09:07;;;;;;;6.80;1.90;;;29.60;81.60;;;;;;5022568;28;20273;-78
2023/10/22 03:11:39;;;;;;;5.32;2.03;;;29.70;80.10;;;;;;5020190;28;20216;-77
2023/10/22 03:14:10;;;;;;;12.88;2.08;;;29.70;80.30;;;;;;5032876;28;20197;-78
2023/10/22 03:16:41;;;;;;;6.53;1.80;;;29.60;78.30;;;;;;5030985;28;20650;-77
2023/10/22 03:19:11;;;;;;;7.50;2.00;;;29.50;79.40;;;;;;5033720;28;20570;-78
2023/10/22 03:21:42;;;;;;;6.35;1.50;;;29.50;77.40;;;;;;5027742;28;20269;-78
2023/10/22 03:24:15;;;;;;;10.68;2.00;;;29.70;75.30;;;;;;5017161;28;20213;-78
2023/10/22 03:26:48;;;;;;;5.93;1.92;;;29.90;72.40;;;;;;5020889;28;20697;-79
2023/10/22 03:29:18;;;;;;;7.38;1.88;;;30.00;73.10;;;;;;5013939;28;20206;-78
2023/10/22 03:31:49;;;;;;;8.68;2.22;;;29.90;80.90;;;;;;5015323;28;20248;-78
2023/10/22 03:34:20;;;;;;;10.55;1.90;;;29.60;81.80;;;;;;5011861;28;20193;-78
2023/10/22 03:36:52;;;;;;;7.05;1.60;;;29.30;84.70;;;;;;4997023;28;20203;-78
2023/10/22 03:39:23;;;;;;;8.25;2.03;;;29.20;85.20;;;;;;4976409;28;20199;-78
2023/10/22 03:41:55;;;;;;;10.38;1.80;;;29.00;83.50;;;;;;4997472;28;20652;-78
2023/10/22 03:44:26;;;;;;;9.18;2.10;;;28.70;85.30;;;;;;5018534;28;20280;-77
2023/10/22 03:46:57;;;;;;;9.60;1.65;;;28.40;87.10;;;;;;5011482;28;20710;-77
2023/10/22 03:49:27;;;;;;;10.57;2.55;;;28.20;88.00;;;;;;5011676;28;20204;-77
2023/10/22 03:51:58;;;;;;;10.88;2.20;;;28.20;90.20;;;;;;5012940;28;20733;-78
2023/10/22 03:54:29;;;;;;;7.20;1.83;;;28.20;90.40;;;;;;5013229;28;20198;-77
2023/10/22 03:57:02;;;;;;;11.65;2.30;;;28.40;90.60;;;;;;5012355;28;20198;-78
2023/10/22 03:59:33;;;;;;;9.15;1.80;;;28.40;90.40;;;;;;5009606;28;20217;-78
2023/10/22 04:02:04;;;;;;;10.25;2.20;;;28.20;91.80;;;;;;5000535;28;20203;-78
2023/10/22 04:04:35;;;;;;;7.55;1.90;;;28.10;92.30;;;;;;5005703;28;20201;-77
2023/10/22 04:07:06;;;;;;;7.18;1.42;;;27.90;92.10;;;;;;5008771;28;20218;-77
2023/10/22 04:09:37;;;;;;;10.13;1.95;;;27.70;91.70;;;;;;5013593;28;20193;-77
2023/10/22 04:12:10;;;;;;;10.45;2.25;;;27.70;91.00;;;;;;5008442;28;20198;-78
2023/10/22 04:14:41;;;;;;;7.53;1.80;;;27.70;91.60;;;;;;5009047;28;20201;-78
2023/10/22 04:17:12;;;;;;;8.98;2.05;;;27.50;92.00;;;;;;5013779;28;20193;-78
2023/10/22 04:19:42;;;;;;;9.77;1.80;;;27.50;93.90;;;;;;4997331;28;20198;-77
2023/10/22 04:22:13;;;;;;;9.48;2.10;;;27.50;94.80;;;;;;4994759;28;21018;-78
2023/10/22 04:24:45;;;;;;;8.65;1.80;;;27.50;95.00;;;;;;5011953;28;20209;-78
2023/10/22 04:27:18;;;;;;;9.63;2.22;;;27.50;95.90;;;;;;4999868;28;20637;-78
2023/10/22 04:29:49;;;;;;;10.52;2.00;;;27.30;95.60;;;;;;5010629;28;20543;-78
2023/10/22 04:32:19;;;;;;;11.43;1.98;;;27.10;97.30;;;;;;5010771;28;20234;-79
2023/10/22 04:34:50;;;;;;;10.90;1.58;;;27.30;97.60;;;;;;5011893;28;20277;-78
2023/10/22 04:37:23;;;;;;;9.48;1.75;;;27.40;98.00;;;;;;5011620;28;20209;-79
2023/10/22 04:39:54;;;;;;;9.18;2.00;;;27.50;97.80;;;;;;5011835;28;20197;-78
2023/10/22 04:42:29;;;;;;;10.93;1.55;;;27.80;97.60;;;;;;5011678;28;20281;-78
2023/10/22 04:45:00;;;;;;;7.45;1.60;;;27.90;97.10;;;;;;4997586;28;20219;-79
2023/10/22 04:47:31;;;;;;;7.85;1.77;;;27.70;95.90;;;;;;5039878;28;20300;-78
2023/10/22 04:50:02;;;;;;;5.68;1.88;;;27.80;96.20;;;;;;5022918;28;20673;-78
2023/10/22 04:52:33;;;;;;;5.55;1.70;;;27.60;95.30;;;;;;5008342;28;21026;-77
2023/10/22 04:55:04;;;;;;;9.82;2.20;;;27.40;95.50;;;;;;5010766;28;20584;-78
2023/10/22 04:57:37;;;;;;;7.03;1.77;;;27.50;95.90;;;;;;5010393;28;20281;-78
2023/10/22 05:00:09;;;;;;;9.30;2.20;;;27.60;95.50;;;;;;4999116;28;20199;-78
2023/10/22 05:02:40;;;;;;;6.80;1.70;;;27.80;95.00;;;;;;5006890;28;20194;-78
2023/10/22 05:05:11;;;;;;;10.50;1.67;;;27.80;94.80;;;;;;4997304;28;20201;-78
2023/10/22 05:07:42;;;;;;;7.47;1.88;;;27.80;94.10;;;;;;5012351;28;20230;-78
2023/10/22 05:10:14;;;;;;;9.70;1.90;;;28.00;92.40;;;;;;5013784;28;20210;-78
2023/10/22 05:12:47;;;;;;;7.88;1.90;;;28.30;90.70;;;;;;4996107;28;20198;-78
2023/10/22 05:15:18;;;;;;;7.53;1.70;;;28.40;90.30;;;;;;4996087;28;20199;-77
2023/10/22 05:17:49;;;;;;;7.20;1.75;;;28.60;88.60;;;;;;5002686;28;20253;-76
2023/10/22 05:20:21;;;;;;;8.57;1.65;;;28.50;86.80;;;;;;4994616;28;20202;-77
2023/10/22 05:22:51;;;;;;;9.10;1.70;;;28.70;83.90;;;;;;5011471;28;20611;-77
2023/10/22 05:25:23;;;;;;;6.57;1.83;;;28.70;78.10;;;;;;4992131;28;20201;-76
2023/10/22 05:27:57;;;;;;;6.22;1.65;;;28.80;78.00;;;;;;4996520;28;20236;-77
2023/10/22 05:30:27;;;;;;;7.38;1.70;;;28.70;74.50;;;;;;5012880;28;20205;-77
2023/10/22 05:32:59;;;;;;;6.13;1.77;;;29.10;73.80;;;;;;5017141;28;20207;-77
2023/10/22 05:35:31;;;;;;;7.20;1.42;;;29.40;69.90;;;;;;5026518;28;20575;-79
2023/10/22 05:38:02;;;;;;;9.25;1.90;;;29.60;70.20;;;;;;4998364;28;20286;-77
2023/10/22 05:40:39;;;;;;;9.65;1.85;;;29.40;77.10;;;;;;4996830;28;20208;-78
2023/10/22 05:43:12;;;;;;;5.30;1.73;;;29.80;78.40;;;;;;5009231;28;20193;-77
2023/10/22 05:45:43;;;;;;;8.70;1.90;;;29.70;84.80;;;;;;5010904;28;20235;-78
2023/10/22 05:48:14;;;;;;;8.35;1.80;;;29.80;85.80;;;;;;5005379;28;20223;-78
2023/10/22 05:50:44;;;;;;;15.90;1.98;;;29.90;85.90;;;;;;5028594;28;20310;-78
2023/10/22 05:53:15;;;;;;;6.97;1.67;;;30.10;86.60;;;;;;5009644;28;20871;-78
2023/10/22 05:55:46;;;;;;;8.73;1.80;;;30.00;85.20;;;;;;5010658;28;20201;-77
2023/10/22 05:58:18;;;;;;;7.68;1.77;;;30.00;82.00;;;;;;5007586;28;20209;-78
2023/10/22 06:00:52;;;;;;;10.32;1.98;;;30.00;78.60;;;;;;5007740;28;20202;-78
2023/10/22 06:03:23;;;;;;;9.75;1.70;;;29.90;81.20;;;;;;5010560;28;20212;-77
2023/10/22 06:05:53;;;;;;;9.75;1.98;;;29.80;82.10;;;;;;5027056;28;20193;-78
2023/10/22 06:08:25;;;;;;;12.10;2.08;;;29.80;82.30;;;;;;5029895;28;20228;-78
2023/10/22 06:10:56;;;;;;;11.43;2.20;;;30.10;83.60;;;;;;5032730;28;20193;-78
2023/10/22 06:13:28;;;;;;;8.50;2.03;;;30.40;83.10;;;;;;5031186;28;20193;-77
2023/10/22 06:16:00;;;;;;;10.73;1.85;;;30.80;80.80;;;;;;5014711;28;20210;-78
2023/10/22 06:18:31;;;;;;;5.20;1.70;;;30.80;77.50;;;;;;5008079;28;20260;-79
2023/10/22 06:21:02;;;;;;;8.73;1.80;;;30.50;75.30;;;;;;5010856;28;20220;-79
2023/10/22 06:23:32;;;;;;;8.50;1.77;;;30.60;76.30;;;;;;5010882;28;20198;-79
2023/10/22 06:26:04;;;;;;;5.90;1.55;;;30.90;72.70;;;;;;5009532;28;20277;-78
2023/10/22 06:28:36;;;;;;;5.72;1.70;;;31.10;72.10;;;;;;5013025;28;20264;-77
2023/10/22 06:31:10;;;;;;;8.73;1.80;;;31.20;70.70;;;;;;5013226;28;20234;-78
2023/10/22 06:33:42;;;;;;;5.75;1.70;;;31.70;66.00;;;;;;5004994;28;20663;-78
2023/10/22 06:36:17;;;;;;;7.78;1.90;;;32.10;61.80;;;;;;4995980;28;20204;-78
2023/10/22 06:38:48;;;;;;;6.88;1.70;;;32.10;61.00;;;;;;4995292;28;20655;-77
2023/10/22 06:41:20;;;;;;;7.40;1.90;;;31.90;60.40;;;;;;4999923;28;20205;-77
2023/10/22 06:43:52;;;;;;;4.40;1.35;;;31.90;60.30;;;;;;5014898;28;20245;-78
2023/10/22 06:46:23;;;;;;;8.05;1.70;;;32.00;58.60;;;;;;5014051;28;20194;-78
2023/10/22 06:48:54;;;;;;;8.80;1.60;;;32.40;56.90;;;;;;5015169;28;20225;-78
2023/10/22 06:51:25;;;;;;;7.30;1.65;;;32.00;56.00;;;;;;5018536;28;20183;-77
2023/10/22 06:53:55;;;;;;;7.10;1.75;;;32.00;56.20;;;;;;5029387;28;20226;-78
2023/10/22 06:56:27;;;;;;;5.90;1.73;;;32.40;55.70;;;;;;5015567;28;20209;-78
2023/10/22 06:59:02;;;;;;;7.35;1.70;;;32.20;55.50;;;;;;4994965;28;20205;-78
2023/10/22 07:01:33;;;;;;;5.75;1.55;;;32.00;55.90;;;;;;5002961;28;20217;-78
2023/10/22 07:04:04;;;;;;;6.60;1.55;;;32.40;54.30;;;;;;5014304;28;20674;-78
2023/10/22 07:06:35;;;;;;;3.95;1.48;;;32.40;53.70;;;;;;5014018;28;20202;-78
2023/10/22 07:09:06;;;;;;;6.25;1.60;;;32.30;52.10;;;;;;5012626;28;20226;-77
2023/10/22 07:11:38;;;;;;;7.57;1.77;;;31.90;52.00;;;;;;4994463;28;20706;-78
2023/10/22 07:14:11;;;;;;;3.70;1.33;;;31.70;51.90;;;;;;5000486;28;20659;-77
2023/10/22 07:16:42;;;;;;;8.48;1.65;;;31.80;51.80;;;;;;5012211;28;20190;-78
2023/10/22 07:19:13;;;;;;;8.20;2.03;;;31.60;51.60;;;;;;5012937;28;20682;-77
2023/10/22 07:21:44;;;;;;;6.53;1.50;;;31.20;53.10;;;;;;5009292;28;20198;-77
2023/10/22 07:24:14;;;;;;;7.47;1.88;;;30.70;55.00;;;;;;5012878;28;20198;-77
2023/10/22 07:26:45;;;;;;;6.30;1.70;;;30.30;56.90;;;;;;5013254;28;20204;-78
2023/10/22 07:29:18;;;;;;;5.00;1.65;;;29.80;57.50;;;;;;5011694;28;20233;-77
2023/10/22 07:31:51;;;;;;;4.88;2.20;;;29.40;59.60;;;;;;5014487;28;20279;-77
2023/10/22 07:34:21;;;;;;;8.65;2.20;;;29.10;60.80;;;;;;5011477;28;20655;-77
2023/10/22 07:36:52;;;;;;;7.05;2.05;;;28.80;62.20;;;;;;5013180;28;20583;-78
2023/10/22 07:39:23;;;;;;;7.95;2.20;;;28.50;63.20;;;;;;5013360;28;20215;-77
2023/10/22 07:41:54;;;;;;;6.25;2.15;;;28.10;64.80;;;;;;5013610;28;20213;-78
2023/10/22 07:44:26;;;;;;;9.32;2.25;;;27.90;66.00;;;;;;5010769;28;20257;-77
2023/10/22 07:46:57;;;;;;;5.22;1.98;;;27.40;67.60;;;;;;5010810;28;20746;-77
2023/10/22 07:49:28;;;;;;;7.25;2.45;;;27.20;68.70;;;;;;5013392;28;20209;-77
2023/10/22 07:51:58;;;;;;;8.18;2.45;;;26.70;70.90;;;;;;5013255;28;20206;-78
2023/10/22 07:54:29;;;;;;;7.03;2.70;;;26.60;72.60;;;;;;5019642;28;20214;-76
2023/10/22 07:57:00;;;;;;;10.80;3.03;;;26.50;73.60;;;;;;5027889;28;20565;-77
2023/10/22 07:59:33;;;;;;;8.13;2.55;;;26.30;74.50;;;;;;5013923;28;20198;-77
2023/10/22 08:02:03;;;;;;;7.97;2.45;;;26.10;77.10;;;;;;5006356;28;20639;-77
2023/10/22 08:04:35;;;;;;;7.30;2.40;;;26.00;76.80;;;;;;5010654;28;20579;-77
2023/10/22 08:07:06;;;;;;;9.48;2.67;;;25.80;77.00;;;;;;5010566;28;20256;-78
2023/10/22 08:09:37;;;;;;;6.22;2.65;;;25.60;77.90;;;;;;5023516;28;20205;-76
2023/10/22 08:12:08;;;;;;;7.85;2.22;;;25.60;78.40;;;;;;5012580;28;20202;-77
2023/10/22 08:14:40;;;;;;;8.50;2.72;;;25.50;79.40;;;;;;5012514;28;20273;-78
2023/10/22 08:17:11;;;;;;;5.93;2.13;;;25.40;80.80;;;;;;5011384;28;20203;-78
2023/10/22 08:19:42;;;;;;;5.32;2.20;;;25.30;80.50;;;;;;5006438;28;20200;-78
2023/10/22 08:22:13;;;;;;;6.10;2.08;;;25.30;79.80;;;;;;5005314;28;20281;-78
2023/10/22 08:24:44;;;;;;;6.78;2.80;;;25.20;83.00;;;;;;5011802;28;20285;-77
2023/10/22 08:27:15;;;;;;;9.50;3.90;;;25.20;83.00;;;;;;5010845;28;20198;-77
2023/10/22 08:29:49;;;;;;;7.97;3.20;;;25.20;84.10;;;;;;5004366;28;20213;-79
2023/10/22 08:32:20;;;;;;;7.15;3.70;;;25.20;83.40;;;;;;5009856;28;20232;-78
2023/10/22 08:34:51;;;;;;;7.10;2.70;;;25.00;85.00;;;;;;4998017;28;20207;-79
2023/10/22 08:37:22;;;;;;;8.77;2.65;;;24.90;85.00;;;;;;4992439;28;20202;-80
2023/10/22 08:39:53;;;;;;;7.05;2.50;;;24.80;85.90;;;;;;4992483;28;20570;-80
2023/10/22 08:42:27;;;;;;;4.45;2.17;;;24.70;86.90;;;;;;4995742;28;20582;-78
2023/10/22 08:45:01;;;;;;;6.60;2.60;;;24.60;88.50;;;;;;5016370;28;20198;-78
2023/10/22 08:47:32;;;;;;;7.47;2.35;;;24.50;87.80;;;;;;5031708;28;20222;-79
2023/10/22 08:50:04;;;;;;;10.38;3.63;;;24.50;89.20;;;;;;5024884;28;20237;-78
2023/10/22 08:52:36;;;;;;;4.75;1.80;;;24.40;90.00;;;;;;5001266;28;20198;-80
2023/10/22 08:55:10;;;;;;;5.45;1.73;;;24.30;67.00;;;;;;5007307;28;20200;-78
2023/10/22 08:57:44;;;;;;;2.40;1.33;;;24.40;59.00;;;;;;5024692;28;20242;-78
2023/10/22 09:00:21;;;;;;;2.03;0.80;;;24.50;43.60;;;;;;5025667;28;20269;-79
2023/10/22 09:02:52;;;;;;;3.28;1.10;;;24.70;40.20;;;;;;5010117;28;20671;-78
2023/10/22 09:05:23;;;;;;;3.45;1.50;;;24.90;38.60;;;;;;5012080;28;20194;-79
2023/10/22 09:07:55;;;;;;;1.45;0.75;;;25.10;38.10;;;;;;5021523;28;20301;-79
2023/10/22 09:10:43;;;;;;;5.32;1.92;;;25.20;37.10;;;;;;5009021;28;20210;-80
2023/10/22 09:16:28;;;;;;;4.35;1.23;;;25.30;36.60;;;;;;5007300;28;20182;-80
2023/10/22 09:21:55;;;;;;;1.40;0.70;;;25.30;36.70;;;;;;5010915;28;20718;-81
2023/10/22 09:24:26;;;;;;;1.55;0.90;;;25.30;36.70;;;;;;5020299;28;20232;-79
2023/10/22 09:26:59;;;;;;;1.88;0.82;;;25.30;37.80;;;;;;5022544;28;20289;-78
2023/10/22 09:29:34;;;;;;;2.58;0.82;;;25.30;36.50;;;;;;4994774;28;20222;-78
2023/10/22 09:32:10;;;;;;;6.47;1.20;;;25.20;36.50;;;;;;5021996;28;20235;-79
2023/10/22 09:34:43;;;;;;;2.63;0.95;;;25.20;37.20;;;;;;5015800;28;20194;-78
2023/10/22 09:37:18;;;;;;;2.08;0.80;;;25.20;37.90;;;;;;4998478;28;20280;-77
2023/10/22 09:39:50;;;;;;;2.47;0.80;;;25.20;37.10;;;;;;5012282;28;20190;-79
2023/10/22 09:42:21;;;;;;;5.45;1.17;;;25.20;37.30;;;;;;5006174;28;20199;-80
2023/10/22 09:44:53;;;;;;;6.85;2.13;;;25.10;36.80;;;;;;5011064;28;20216;-78
2023/10/22 09:47:42;;;;;;;3.65;1.48;;;25.00;37.00;;;;;;5021510;28;20232;-79
2023/10/22 09:50:22;;;;;;;3.33;1.35;;;25.00;38.20;;;;;;5030020;28;20190;-79
2023/10/22 09:53:03;;;;;;;1.80;0.90;;;24.90;37.50;;;;;;4997445;28;20248;-78
2023/10/22 09:55:35;;;;;;;1.75;0.75;;;24.80;36.90;;;;;;5019147;28;20674;-81
2023/10/22 09:58:08;;;;;;;1.85;0.80;;;24.70;37.00;;;;;;5002069;28;20246;-80
2023/10/22 10:00:39;;;;;;;1.45;0.60;;;24.70;37.20;;;;;;5028547;28;20232;-78
2023/10/22 10:03:27;;;;;;;1.83;0.70;;;24.60;37.70;;;;;;5025736;28;20229;-79
2023/10/22 10:08:47;;;;;;;3.83;1.50;;;24.60;40.40;;;;;;5010068;28;20222;-79
2023/10/22 10:11:19;;;;;;;9.85;4.40;;;24.60;40.80;;;;;;5013390;28;20309;-79
2023/10/22 10:13:49;;;;;;;6.47;2.53;;;24.60;42.50;;;;;;5015062;28;20289;-79
2023/10/22 10:16:25;;;;;;;3.70;1.50;;;24.60;41.40;;;;;;5016181;28;20205;-80
2023/10/22 10:19:10;;;;;;;3.55;1.10;;;24.50;40.70;;;;;;5002348;28;20222;-78
2023/10/22 10:21:49;;;;;;;1.55;0.80;;;24.40;40.10;;;;;;4994982;28;20256;-80
2023/10/22 10:24:29;;;;;;;1.70;0.90;;;24.40;40.70;;;;;;5007174;28;20195;-79
2023/10/22 10:27:29;;;;;;;2.10;1.13;;;24.20;40.30;;;;;;5012953;28;20178;-80
2023/10/22 10:30:24;;;;;;;1.88;0.70;;;24.20;41.90;;;;;;5010710;28;20238;-77
2023/10/22 10:32:56;;;;;;;1.42;0.63;;;24.10;40.80;;;;;;5014827;28;20197;-78
2023/10/22 10:35:31;;;;;;;3.17;0.90;;;24.10;41.60;;;;;;5021862;28;20268;-79
2023/10/22 10:38:28;;;;;;;1.25;0.70;;;23.90;42.40;;;;;;5019642;28;20186;-79
2023/10/22 10:41:02;;;;;;;1.80;0.70;;;23.90;41.50;;;;;;5019634;28;20261;-79
2023/10/22 10:44:09;;;;;;;2.63;0.52;;;24.00;42.30;;;;;;5019542;28;20190;-80
2023/10/22 10:46:40;;;;;;;1.90;0.70;;;23.90;41.90;;;;;;5012127;28;20679;-78
2023/10/22 10:49:10;;;;;;;1.00;0.60;;;24.00;42.80;;;;;;5011540;28;20238;-78
2023/10/22 10:52:01;;;;;;;1.35;0.63;;;24.00;43.70;;;;;;5009235;28;20194;-79
2023/10/22 10:54:32;;;;;;;1.10;0.57;;;23.80;42.50;;;;;;5010733;28;20200;-78
2023/10/22 10:57:03;;;;;;;0.95;0.63;;;23.90;44.00;;;;;;5003718;28;20198;-78
2023/10/22 10:59:35;;;;;;;2.60;0.73;;;23.80;44.60;;;;;;5010851;28;20186;-80
2023/10/22 11:02:10;;;;;;;3.63;0.73;;;23.80;44.90;;;;;;5021797;28;20201;-79
2023/10/22 11:04:47;;;;;;;1.60;0.60;;;23.80;45.50;;;;;;5027578;28;20292;-78
2023/10/22 11:07:22;;;;;;;1.83;0.65;;;23.70;45.80;;;;;;5009698;28;20200;-79
2023/10/22 11:09:56;;;;;;;1.98;0.80;;;23.70;46.60;;;;;;5012181;28;20240;-77
2023/10/22 11:12:28;;;;;;;2.35;0.90;;;23.60;45.30;;;;;;5014117;28;20205;-77
2023/10/22 11:14:59;;;;;;;1.13;0.60;;;23.60;44.10;;;;;;5012610;28;20237;-79
2023/10/22 11:17:30;;;;;;;1.85;0.68;;;23.50;43.40;;;;;;5008391;28;20191;-78
2023/10/22 11:20:01;;;;;;;1.30;0.50;;;23.40;43.50;;;;;;5010485;28;20209;-79
2023/10/22 11:22:34;;;;;;;1.17;0.57;;;23.40;43.60;;;;;;5006101;28;20193;-77
2023/10/22 11:25:06;;;;;;;1.85;0.70;;;23.40;44.20;;;;;;5014306;28;20683;-78
2023/10/22 11:27:39;;;;;;;1.20;0.80;;;23.40;43.90;;;;;;5014457;28;20209;-79
2023/10/22 11:30:11;;;;;;;1.23;0.68;;;23.30;43.80;;;;;;5012029;28;20224;-78
2023/10/22 11:32:50;;;;;;;0.65;0.50;;;23.20;43.90;;;;;;5012623;28;20236;-79
2023/10/22 11:35:30;;;;;;;0.98;0.70;;;23.10;44.20;;;;;;5012285;28;20208;-81
2023/10/22 11:38:03;;;;;;;1.30;0.90;;;23.10;44.70;;;;;;5013949;28;20678;-79
2023/10/22 11:40:36;;;;;;;2.15;0.80;;;23.00;44.60;;;;;;5012670;28;20193;-79
2023/10/22 11:43:16;;;;;;;1.88;0.60;;;23.00;45.10;;;;;;5013720;28;20260;-80
2023/10/22 11:45:53;;;;;;;2.08;0.50;;;23.00;45.70;;;;;;5012119;28;20234;-79
2023/10/22 11:48:25;;;;;;;0.98;0.60;;;23.00;46.70;;;;;;5011921;28;20181;-79
2023/10/22 11:51:00;;;;;;;1.83;0.73;;;23.00;46.60;;;;;;5012984;28;20206;-78
2023/10/22 11:53:43;;;;;;;2.42;0.85;;;23.00;45.60;;;;;;5034698;28;20201;-80
2023/10/22 11:56:14;;;;;;;1.88;0.60;;;22.90;46.90;;;;;;5013878;28;20233;-77
2023/10/22 11:58:52;;;;;;;1.83;0.63;;;22.90;46.70;;;;;;5012323;28;20205;-81
2023/10/22 12:01:23;;;;;;;3.20;0.80;;;22.80;47.10;;;;;;5013054;28;20201;-80
2023/10/22 12:03:54;;;;;;;1.00;0.50;;;22.80;48.10;;;;;;5009837;28;20202;-78
2023/10/22 12:06:25;;;;;;;2.30;0.60;;;22.80;47.90;;;;;;5022450;28;20196;-80
2023/10/22 12:08:58;;;;;;;1.45;0.63;;;22.80;49.30;;;;;;5018409;28;20256;-80
2023/10/22 12:11:29;;;;;;;1.75;0.70;;;22.80;48.00;;;;;;5011906;28;20205;-79
2023/10/22 12:14:00;;;;;;;1.42;0.68;;;22.70;47.20;;;;;;5011551;28;20198;-79
2023/10/22 12:16:37;;;;;;;1.05;0.57;;;22.70;46.70;;;;;;5012599;28;20654;-78
2023/10/22 12:19:08;;;;;;;1.27;0.50;;;22.60;47.30;;;;;;5013085;28;20293;-79
2023/10/22 12:21:39;;;;;;;2.75;0.50;;;22.60;48.00;;;;;;4998662;28;20587;-79
2023/10/22 12:24:12;;;;;;;1.30;0.52;;;22.60;49.10;;;;;;5001476;28;20204;-78
2023/10/22 12:26:42;;;;;;;0.98;0.63;;;22.50;49.10;;;;;;5013541;28;20567;-79
2023/10/22 12:29:13;;;;;;;1.65;0.70;;;22.50;49.50;;;;;;5012352;28;20222;-79
2023/10/22 12:31:44;;;;;;;1.02;0.55;;;22.50;49.70;;;;;;5009291;28;20270;-79
2023/10/22 12:34:15;;;;;;;2.60;1.00;;;22.50;49.30;;;;;;5013677;28;20291;-78
2023/10/22 12:36:46;;;;;;;2.78;0.80;;;22.40;49.30;;;;;;5032517;28;20205;-79
2023/10/22 12:39:19;;;;;;;1.25;0.60;;;22.40;51.40;;;;;;5018607;28;20205;-80
2023/10/22 12:41:49;;;;;;;3.35;0.75;;;22.40;52.40;;;;;;5013655;28;20232;-77
2023/10/22 12:44:24;;;;;;;1.25;0.60;;;22.40;52.60;;;;;;5013096;28;20742;-81
2023/10/22 12:46:54;;;;;;;1.73;0.60;;;22.40;53.20;;;;;;5012745;28;20288;-79
2023/10/22 12:49:25;;;;;;;1.55;0.65;;;22.30;53.10;;;;;;5010182;28;20218;-77
2023/10/22 12:51:57;;;;;;;1.35;0.65;;;22.20;53.70;;;;;;5009559;28;20942;-81
2023/10/22 12:54:29;;;;;;;1.70;0.70;;;22.20;54.50;;;;;;4996351;28;20229;-78
2023/10/22 12:57:00;;;;;;;2.15;1.10;;;22.10;55.60;;;;;;4999525;28;20564;-78
2023/10/22 12:59:33;;;;;;;1.95;0.70;;;22.10;56.20;;;;;;5013730;28;20218;-78
2023/10/22 13:02:04;;;;;;;2.05;0.80;;;22.10;55.90;;;;;;5011984;28;20663;-78
2023/10/22 13:04:35;;;;;;;1.67;0.90;;;22.00;53.30;;;;;;5012989;28;20198;-79
2023/10/22 13:07:06;;;;;;;1.15;0.70;;;21.90;55.40;;;;;;4996772;28;20206;-78
2023/10/22 13:09:38;;;;;;;1.20;0.70;;;21.90;56.40;;;;;;5021841;28;20216;-78
2023/10/22 13:12:09;;;;;;;1.45;0.60;;;21.80;56.30;;;;;;5027244;28;20193;-79
2023/10/22 13:14:40;;;;;;;2.00;0.60;;;21.80;57.60;;;;;;5012647;28;20190;-79
2023/10/22 13:17:11;;;;;;;2.20;0.80;;;21.80;59.30;;;;;;5011508;28;20222;-78
2023/10/22 13:19:41;;;;;;;0.85;0.57;;;21.80;61.60;;;;;;5011373;28;20206;-79
2023/10/22 13:22:12;;;;;;;0.57;0.50;;;21.80;62.90;;;;;;4998385;28;20211;-79